Sandestin, Florida
Current Conditions -  °F | °C
As of 9:53 AM on Thursday 30 Oct 2014 (Local Time) from KDTS Reporting Station
Clear Clear  
Wind Chill: 67°   Ceiling: Unl
Heat Index: 67°   Visibility: 10mi
Dew Point: 46°   Wind: 14mph
Humidity: 47%   Direction: 20°NNE
Pressure: 30.07"   Gusts: 20mph
Location:  30.3738°N, 86.3602°W
Report Text: KDTS 301453Z AUTO 02012G17KT 10SM CLR 19/08 A3007 RMK AO2 SLP182 T01940078 51013 TSNO
Loading
Personal Weather Stations






























Interactive Weather Map New forecast layout! Learn more

10-Day Weather Forecast

Advertisements
Track Severe Weather on mobile